Time;durP1;ratioP1;P1;durP2;ratioP2;P2;SDS_P1;SDS_P2;PMS_P1;PMS_P2;Temp;Humidity;BMP_temperature;BMP_pressure;BME280_temperature;BME280_humidity;BME280_pressure;Samples;Min_cycle;Max_cycle;Signal;HPM_P1;HPM_P2
2022/09/01 00:09:16;;;;;;;11.60;5.30;;;;;;;11.94;74.00;99060.50;433182;1270;99359;-40
2022/09/01 00:19:24;;;;;;;9.30;5.40;;;;;;;11.99;74.23;99051.02;432234;1270;112636;-40
2022/09/01 00:29:32;;;;;;;8.00;5.90;;;;;;;12.00;74.32;99054.54;433515;1270;109455;-40
2022/09/01 00:39:39;;;;;;;8.40;5.70;;;;;;;11.81;74.48;99052.42;432513;1270;99431;-41
2022/09/01 00:49:49;;;;;;;9.70;6.00;;;;;;;11.68;74.72;99052.88;433259;1270;108892;-40
2022/09/01 01:00:00;;;;;;;9.00;5.90;;;;;;;11.66;74.88;99047.27;433314;1269;99265;-40
2022/09/01 01:10:07;;;;;;;12.50;4.50;;;;;;;11.63;75.01;99048.58;432679;1270;112326;-40
2022/09/01 01:30:47;;;;;;;13.60;5.20;;;;;;;11.76;75.41;99047.02;433276;1270;98037;-41
2022/09/01 01:40:55;;;;;;;8.80;5.70;;;;;;;11.67;75.57;99048.14;433036;1270;108790;-41
2022/09/01 01:51:04;;;;;;;9.10;4.70;;;;;;;11.45;75.18;99041.40;432880;1270;99243;-41
2022/09/01 02:01:11;;;;;;;5.80;4.00;;;;;;;11.20;75.34;99038.36;433121;1270;112471;-41
2022/09/01 02:11:20;;;;;;;11.70;4.10;;;;;;;11.29;75.94;99033.64;433323;1270;109098;-39
2022/09/01 02:21:28;;;;;;;7.30;4.70;;;;;;;11.45;76.09;99035.48;433265;1269;99255;-40
2022/09/01 02:41:43;;;;;;;8.00;4.40;;;;;;;11.06;75.80;99032.23;433223;1269;99968;-40
2022/09/01 02:51:53;;;;;;;10.90;4.00;;;;;;;10.85;75.79;99038.91;433257;1270;112343;-40
2022/09/01 03:02:00;;;;;;;6.50;3.90;;;;;;;10.76;76.01;99037.67;432990;1270;108959;-41
2022/09/01 03:12:06;;;;;;;11.90;4.50;;;;;;;10.75;76.10;99032.77;432350;1270;98838;-42
2022/09/01 03:22:14;;;;;;;10.50;4.70;;;;;;;10.65;76.32;99027.66;432566;1270;109596;-42
2022/09/01 03:32:21;;;;;;;5.80;3.80;;;;;;;10.54;76.15;99023.73;432433;1270;99244;-41
2022/09/01 03:42:29;;;;;;;5.30;3.70;;;;;;;10.38;76.24;99027.77;432458;1270;113249;-40
2022/09/01 03:52:39;;;;;;;11.70;4.00;;;;;;;10.30;76.43;99032.44;432520;1270;108841;-41
2022/09/01 04:13:03;;;;;;;14.80;5.60;;;;;;;10.39;76.86;99030.30;433124;1270;109011;-41
2022/09/01 04:23:11;;;;;;;11.40;5.50;;;;;;;10.35;77.02;99028.77;432895;1270;98034;-41
2022/09/01 04:33:21;;;;;;;9.30;4.90;;;;;;;10.36;77.03;99032.95;432529;1270;112537;-41
2022/09/01 04:43:28;;;;;;;16.90;6.60;;;;;;;10.49;77.18;99033.31;432509;1270;109009;-41
2022/09/01 04:53:35;;;;;;;16.40;4.90;;;;;;;10.86;77.29;99041.55;433307;1271;99172;-41
2022/09/01 05:03:42;;;;;;;98.10;19.50;;;;;;;11.17;77.61;99042.52;432644;1270;108808;-40
2022/09/01 05:13:51;;;;;;;221.30;44.30;;;;;;;11.73;77.60;99040.71;432659;1270;98015;-42
2022/09/01 05:24:02;;;;;;;178.00;37.00;;;;;;;12.19;77.74;99039.65;432177;1270;112439;-43
2022/09/01 05:34:11;;;;;;;116.70;30.80;;;;;;;13.88;77.96;99036.98;432626;1270;108922;-42
2022/09/01 05:54:27;;;;;;;12.80;6.30;;;;;;;15.24;76.34;99038.48;432225;1270;108969;-42
2022/09/01 06:14:41;;;;;;;5.10;2.80;;;;;;;18.16;75.36;99035.40;432086;1269;1574450;-41
2022/09/01 06:24:50;;;;;;;5.00;2.70;;;;;;;18.55;73.12;99042.88;432433;1270;108111;-42
2022/09/01 06:45:13;;;;;;;2.90;2.50;;;;;;;17.78;69.89;99058.27;433218;1270;108773;-41
2022/09/01 06:55:20;;;;;;;2.80;1.40;;;;;;;18.18;70.86;99058.25;432885;1270;99264;-41
2022/09/01 07:05:29;;;;;;;4.30;1.90;;;;;;;18.18;68.16;99070.39;433076;1270;111373;-41
2022/09/01 07:15:57;;;;;;;;;;;;;;;18.19;67.53;99075.84;433276;1270;108804;-41
2022/09/01 07:26:24;;;;;;;1.90;1.20;;;;;;;18.55;66.72;99080.86;432926;1269;99396;-41
2022/09/01 07:36:35;;;;;;;2.80;0.90;;;;;;;19.26;66.21;99081.66;433241;1270;108827;-41
2022/09/01 07:47:02;;;;;;;0.60;0.50;;;;;;;19.49;64.23;99088.34;433455;1270;98815;-41
2022/09/01 07:57:30;;;;;;;2.00;0.90;;;;;;;19.11;63.21;99090.63;433176;1270;112493;-43
2022/09/01 08:07:38;;;;;;;3.80;0.70;;;;;;;19.20;62.12;99093.87;433306;1270;108863;-39
2022/09/01 08:17:58;;;;;;;2.70;1.10;;;;;;;19.51;61.46;99094.06;433136;1270;99290;-41
2022/09/01 08:28:06;;;;;;;0.60;0.60;;;;;;;19.26;59.77;99098.18;431810;1270;112201;-41
2022/09/01 08:38:13;;;;;;;3.10;1.00;;;;;;;19.42;58.20;99102.90;432727;1270;107815;-39
2022/09/01 08:48:25;;;;;;;4.50;0.60;;;;;;;19.37;57.18;99096.70;432329;1270;98017;-41
2022/09/01 08:58:52;;;;;;;1.00;0.40;;;;;;;18.79;54.42;99093.58;432997;1270;108786;-39
2022/09/01 09:09:03;;;;;;;1.60;0.50;;;;;;;18.90;54.97;99093.71;433105;1269;99253;-40
2022/09/01 09:19:11;;;;;;;4.10;0.50;;;;;;;18.95;54.90;99098.03;433226;1270;112899;-41
2022/09/01 09:29:19;;;;;;;0.90;0.50;;;;;;;19.66;54.56;99094.00;433027;1271;108894;-39
2022/09/01 09:39:24;;;;;;;;;;;;;;;19.76;53.45;99094.42;433196;1269;99259;-40
2022/09/01 09:49:33;;;;;;;2.40;0.30;;;;;;;19.88;53.22;99086.23;432431;1270;108795;-42
2022/09/01 09:59:56;;;;;;;1.10;0.40;;;;;;;19.83;49.76;99084.68;432515;1270;99304;-40
2022/09/01 10:10:04;;;;;;;1.10;0.20;;;;;;;19.33;49.36;99084.27;433258;1270;112215;-43
2022/09/01 10:20:17;;;;;;;0.40;0.20;;;;;;;19.73;49.97;99085.90;433007;1271;107937;-40
2022/09/01 10:30:26;;;;;;;4.20;0.30;;;;;;;19.82;49.10;99083.54;433356;1271;99226;-41
2022/09/01 10:40:38;;;;;;;2.20;0.30;;;;;;;19.77;48.91;99087.48;432697;1270;108755;-41
2022/09/01 10:50:56;;;;;;;3.00;0.30;;;;;;;19.51;46.52;99088.70;432973;1270;99243;-41
2022/09/01 11:01:04;;;;;;;3.30;0.50;;;;;;;19.56;47.32;99077.52;432759;1270;112481;-43
2022/09/01 11:21:34;;;;;;;0.20;0.20;;;;;;;19.92;45.84;99076.17;432596;1271;99267;-44
2022/09/01 11:41:53;;;;;;;3.20;0.40;;;;;;;20.29;46.65;99061.09;432747;1270;98828;-42
2022/09/01 12:02:17;;;;;;;0.60;0.30;;;;;;;20.52;45.55;99055.27;432408;1271;108821;-42
2022/09/01 12:22:42;;;;;;;1.70;0.50;;;;;;;19.98;45.13;99050.22;432765;1269;108860;-41
2022/09/01 12:32:50;;;;;;;0.80;0.40;;;;;;;19.38;46.84;99058.98;432415;1270;99254;-41
2022/09/01 12:42:57;;;;;;;0.70;0.20;;;;;;;19.48;46.48;99044.34;432703;1270;112607;-40
2022/09/01 12:53:14;;;;;;;1.70;0.60;;;;;;;19.86;45.46;99033.06;432625;1271;108817;-41
2022/09/01 13:03:22;;;;;;;3.10;0.30;;;;;;;19.68;46.28;99037.30;432318;1270;99224;-43
2022/09/01 13:13:30;;;;;;;0.90;0.30;;;;;;;19.41;46.93;99038.00;433007;1271;108789;-42
2022/09/01 13:23:37;;;;;;;3.30;0.60;;;;;;;19.41;45.58;99041.87;432965;1270;98007;-42
2022/09/01 13:33:44;;;;;;;4.70;0.50;;;;;;;19.42;46.81;99039.55;432855;1270;112390;-41
2022/09/01 13:44:11;;;;;;;2.50;0.40;;;;;;;19.48;45.86;99037.76;432413;1270;109616;-41
2022/09/01 13:54:19;;;;;;;2.90;1.00;;;;;;;19.58;46.65;99038.23;432574;1271;99257;-40
2022/09/01 14:04:25;;;;;;;4.90;0.70;;;;;;;19.23;45.01;99042.38;432824;1270;112172;-41
2022/09/01 14:14:34;;;;;;;1.20;0.60;;;;;;;18.84;46.07;99038.91;432743;1270;108844;-41
2022/09/01 14:25:02;;;;;;;13.60;2.00;;;;;;;19.15;46.32;99028.38;432695;1269;99367;-42
2022/09/01 14:35:10;;;;;;;2.40;0.80;;;;;;;19.48;46.69;99027.61;432526;1269;109314;-42
2022/09/01 14:45:17;;;;;;;;;;;;;;;19.61;47.04;99024.01;432696;1270;99233;-41
2022/09/01 14:55:22;;;;;;;3.50;0.50;;;;;;;19.53;45.76;99022.17;432697;1270;112289;-42
2022/09/01 15:05:29;;;;;;;4.10;0.80;;;;;;;19.46;45.90;99015.50;432737;1270;108234;-43
2022/09/01 15:15:45;;;;;;;3.80;0.50;;;;;;;19.53;46.06;99011.17;432707;1270;98867;-42
2022/09/01 15:25:53;;;;;;;4.40;0.70;;;;;;;19.50;45.99;99008.50;432857;1270;109033;-43
2022/09/01 15:35:59;;;;;;;2.90;0.40;;;;;;;19.53;46.68;99007.52;432883;1270;98649;-42
2022/09/01 15:46:05;;;;;;;2.30;0.80;;;;;;;19.47;46.90;99008.14;432331;1270;112360;-42
2022/09/01 15:56:12;;;;;;;2.90;1.00;;;;;;;19.31;47.11;99002.70;432726;1270;108866;-40
2022/09/01 16:06:18;;;;;;;1.20;0.70;;;;;;;19.09;46.92;99010.29;433086;1269;98840;-39
2022/09/01 16:16:34;;;;;;;1.90;0.70;;;;;;;18.31;47.39;99019.63;432942;1269;108331;-43
2022/09/01 16:26:46;;;;;;;2.10;0.80;;;;;;;17.76;48.48;99026.48;432573;1270;98060;-42
2022/09/01 16:36:54;;;;;;;4.50;2.00;;;;;;;17.46;49.51;99023.60;432522;1270;112510;-42
2022/09/01 16:57:11;;;;;;;3.40;1.40;;;;;;;17.15;51.02;99031.05;433265;1269;99922;-43
2022/09/01 17:07:26;;;;;;;1.60;1.50;;;;;;;17.02;51.70;99030.48;432420;1271;109063;-43
2022/09/01 17:27:48;;;;;;;2.90;1.50;;;;;;;16.85;53.19;99050.98;433348;1270;112448;-42
2022/09/01 17:38:10;;;;;;;4.50;1.30;;;;;;;16.53;53.78;99058.94;433363;1270;108909;-42
2022/09/01 17:48:19;;;;;;;2.00;1.20;;;;;;;16.15;54.57;99065.55;433063;1270;98046;-40
2022/09/01 18:08:37;;;;;;;3.80;1.40;;;;;;;15.55;55.80;99096.48;431702;1269;2096064;-40
2022/09/01 18:28:52;;;;;;;2.80;1.70;;;;;;;15.33;57.12;99111.36;432425;1270;108820;-42
2022/09/01 18:39:06;;;;;;;2.40;1.70;;;;;;;15.13;57.52;99123.96;432977;1269;99241;-42
2022/09/01 18:49:13;;;;;;;2.40;1.60;;;;;;;14.93;57.95;99122.16;432506;1270;106807;-43
2022/09/01 18:59:34;;;;;;;7.70;2.10;;;;;;;14.74;58.63;99120.15;432274;1270;99961;-42
2022/09/01 19:09:41;;;;;;;3.90;1.60;;;;;;;14.67;59.18;99130.00;433544;1270;112602;-40
2022/09/01 19:19:51;;;;;;;3.70;2.20;;;;;;;14.71;59.72;99140.27;432985;1269;107705;-40
2022/09/01 19:30:02;;;;;;;8.70;1.70;;;;;;;14.78;60.36;99144.42;433096;1269;99213;-40
2022/09/01 19:40:10;;;;;;;4.30;1.70;;;;;;;14.69;60.81;99140.67;433495;1269;109045;-41
2022/09/01 20:00:35;;;;;;;1.50;1.40;;;;;;;14.50;62.09;99156.67;433290;1270;112324;-41
2022/09/01 20:10:54;;;;;;;6.50;2.60;;;;;;;14.49;62.47;99153.52;433513;1270;107041;-41
2022/09/01 20:21:07;;;;;;;3.50;2.30;;;;;;;14.46;62.85;99149.16;433392;1269;99280;-41
2022/09/01 20:31:28;;;;;;;5.90;2.60;;;;;;;14.46;63.37;99156.50;433192;1270;108719;-44
2022/09/01 20:41:37;;;;;;;6.30;2.50;;;;;;;14.43;63.72;99158.63;433153;1269;99242;-40
2022/09/01 20:51:47;;;;;;;5.70;2.90;;;;;;;14.39;63.82;99165.86;433005;1269;111566;-41
2022/09/01 21:12:04;;;;;;;8.10;3.50;;;;;;;14.09;64.56;99167.33;432891;1269;99256;-41
2022/09/01 21:22:13;;;;;;;5.30;2.40;;;;;;;14.03;64.71;99171.95;432849;1269;108943;-41
2022/09/01 21:32:29;;;;;;;5.70;2.40;;;;;;;13.95;64.92;99172.81;432983;1270;99230;-41
2022/09/01 21:42:41;;;;;;;5.90;3.00;;;;;;;13.77;65.19;99174.45;433387;1270;112552;-40
2022/09/01 21:52:48;;;;;;;5.80;2.70;;;;;;;13.48;65.59;99172.65;433171;1270;109030;-41
2022/09/01 22:23:09;;;;;;;3.80;2.30;;;;;;;12.75;66.31;99162.22;433426;1270;99262;-40
2022/09/01 22:33:17;;;;;;;6.70;2.40;;;;;;;12.50;66.54;99159.94;433066;1270;112493;-40
2022/09/01 22:43:26;;;;;;;5.90;3.50;;;;;;;12.29;66.78;99152.64;433197;1269;108776;-40
2022/09/01 22:53:33;;;;;;;3.50;2.30;;;;;;;12.18;67.16;99147.61;432467;1270;98043;-40
2022/09/01 23:03:41;;;;;;;8.30;2.80;;;;;;;12.01;67.53;99149.30;432610;1270;108794;-40
2022/09/01 23:13:48;;;;;;;8.00;2.10;;;;;;;11.69;67.40;99148.85;432346;1270;99236;-40
2022/09/01 23:23:57;;;;;;;6.90;2.60;;;;;;;11.46;67.79;99154.28;433322;1270;112638;-42
2022/09/01 23:34:06;;;;;;;5.80;2.10;;;;;;;11.37;68.33;99155.13;433379;1270;108643;-41
2022/09/01 23:44:14;;;;;;;3.70;2.30;;;;;;;11.26;68.52;99149.86;433348;1269;99389;-41
2022/09/01 23:54:22;;;;;;;8.20;4.40;;;;;;;11.12;68.63;99148.92;433002;1269;108574;-41
